createdAt,value
2022-12-06T00:01:18.170Z,14.73
2022-12-06T00:03:48.621Z,14.82
2022-12-06T00:06:19.740Z,14.32
2022-12-06T00:08:50.420Z,14.73
2022-12-06T00:11:20.624Z,14.38
2022-12-06T00:16:18.451Z,12.90
2022-12-06T00:18:47.626Z,13.65
2022-12-06T00:21:18.026Z,13.60
2022-12-06T00:23:47.462Z,14.10
2022-12-06T00:26:17.475Z,13.85
2022-12-06T00:28:45.737Z,12.95
2022-12-06T00:31:18.669Z,13.50
2022-12-06T00:33:46.947Z,13.43
2022-12-06T00:36:16.975Z,12.73
2022-12-06T00:38:45.013Z,13.07
2022-12-06T00:41:14.967Z,12.45
2022-12-06T00:43:44.919Z,12.88
2022-12-06T00:46:17.469Z,12.52
2022-12-06T00:48:45.966Z,12.57
2022-12-06T00:51:14.960Z,12.52
2022-12-06T00:53:43.523Z,12.50
2022-12-06T00:56:11.938Z,12.80
2022-12-06T00:58:39.964Z,13.05
2022-12-06T01:01:11.620Z,11.50
2022-12-06T01:03:40.112Z,12.60
2022-12-06T01:06:10.329Z,12.07
2022-12-06T01:11:07.152Z,11.60
2022-12-06T01:13:35.295Z,12.65
2022-12-06T01:16:06.550Z,11.65
2022-12-06T01:18:36.441Z,12.05
2022-12-06T01:21:06.185Z,11.65
2022-12-06T01:23:34.072Z,12.55
2022-12-06T01:26:02.129Z,11.25
2022-12-06T01:28:30.326Z,11.80
2022-12-06T01:30:58.373Z,11.18
2022-12-06T01:33:26.527Z,11.68
2022-12-06T01:35:56.220Z,10.80
2022-12-06T01:38:24.224Z,11.50
2022-12-06T01:40:52.217Z,11.80
2022-12-06T01:43:38.934Z,12.10
2022-12-06T01:46:17.616Z,10.65
2022-12-06T01:48:46.240Z,10.77
2022-12-06T01:51:17.420Z,10.95
2022-12-06T01:53:49.075Z,11.10
2022-12-06T01:56:17.476Z,10.32
2022-12-06T01:58:47.732Z,10.25
2022-12-06T02:03:45.068Z,10.93
2022-12-06T02:06:13.723Z,8.30
2022-12-06T02:08:43.272Z,10.50
2022-12-06T02:11:11.260Z,10.73
2022-12-06T02:13:40.503Z,10.32
2022-12-06T02:16:19.680Z,10.35
2022-12-06T02:18:52.681Z,10.07
2022-12-06T02:21:33.459Z,9.82
2022-12-06T02:24:38.064Z,11.63
2022-12-06T02:27:27.103Z,10.80
2022-12-06T02:30:18.129Z,10.52
2022-12-06T02:32:55.220Z,10.35
2022-12-06T02:35:33.201Z,10.73
2022-12-06T02:38:11.439Z,10.68
2022-12-06T02:40:45.571Z,10.43
2022-12-06T02:43:17.301Z,11.77
2022-12-06T02:45:49.964Z,10.52
2022-12-06T02:48:21.975Z,10.52
2022-12-06T02:50:54.242Z,10.27
2022-12-06T02:53:25.330Z,11.02
2022-12-06T02:55:54.304Z,11.15
2022-12-06T02:58:22.269Z,11.43
2022-12-06T03:00:54.842Z,10.77
2022-12-06T03:03:58.888Z,12.43
2022-12-06T03:06:47.045Z,13.25
2022-12-06T03:09:28.302Z,12.80
2022-12-06T03:12:04.955Z,14.45
2022-12-06T03:14:39.514Z,13.02
2022-12-06T03:17:14.458Z,13.13
2022-12-06T03:19:46.607Z,12.32
2022-12-06T03:22:22.116Z,12.35
2022-12-06T03:24:52.296Z,12.57
2022-12-06T03:27:22.013Z,12.95
2022-12-06T03:29:54.307Z,12.77
2022-12-06T03:32:26.213Z,13.68
2022-12-06T03:34:58.496Z,13.52
2022-12-06T03:37:30.654Z,13.95
2022-12-06T03:40:07.672Z,13.32
2022-12-06T03:42:36.376Z,13.80
2022-12-06T03:45:05.807Z,12.65
2022-12-06T03:47:38.444Z,13.45
2022-12-06T03:50:12.693Z,12.77
2022-12-06T03:52:40.849Z,11.93
2022-12-06T03:55:09.726Z,13.30
2022-12-06T03:57:38.032Z,13.45
2022-12-06T04:00:07.659Z,12.13
2022-12-06T04:02:39.388Z,11.77
2022-12-06T04:05:09.596Z,11.90
2022-12-06T04:10:06.253Z,11.98
2022-12-06T04:12:53.399Z,11.32
2022-12-06T04:15:22.345Z,11.15
2022-12-06T04:18:07.857Z,11.18
2022-12-06T04:20:59.435Z,10.88
2022-12-06T04:23:27.976Z,12.02
2022-12-06T04:25:56.353Z,12.82
2022-12-06T04:28:41.808Z,11.70
2022-12-06T04:31:28.673Z,13.70
2022-12-06T04:34:14.306Z,13.48
2022-12-06T04:37:01.526Z,13.55
2022-12-06T04:39:29.513Z,14.70
2022-12-06T04:42:15.571Z,14.75
2022-12-06T04:44:43.828Z,14.35
2022-12-06T04:47:12.020Z,14.45
2022-12-06T04:49:40.512Z,13.45
2022-12-06T04:52:10.994Z,13.90
2022-12-06T04:54:39.735Z,13.55
2022-12-06T04:57:11.089Z,13.02
2022-12-06T04:59:39.921Z,13.65
2022-12-06T05:02:11.134Z,13.57
2022-12-06T05:04:39.521Z,13.98
2022-12-06T05:07:09.756Z,13.27
2022-12-06T05:09:37.716Z,15.60
2022-12-06T05:12:05.975Z,15.18
2022-12-06T05:14:34.028Z,15.23
2022-12-06T05:17:02.098Z,14.77
2022-12-06T05:19:30.184Z,15.18
2022-12-06T05:21:58.165Z,16.60
2022-12-06T05:24:27.825Z,15.90
2022-12-06T05:26:55.746Z,15.38
2022-12-06T05:29:23.705Z,15.23
2022-12-06T05:31:51.843Z,13.95
2022-12-06T05:34:19.818Z,14.00
2022-12-06T05:36:47.839Z,14.65
2022-12-06T05:39:15.825Z,15.02
2022-12-06T05:41:45.314Z,17.85
2022-12-06T05:44:13.438Z,20.80
2022-12-06T05:46:41.407Z,35.30
2022-12-06T05:49:09.422Z,27.63
2022-12-06T05:51:37.353Z,16.15
2022-12-06T05:54:06.601Z,15.60
2022-12-06T05:56:35.426Z,14.70
2022-12-06T05:59:04.830Z,14.82
2022-12-06T06:01:33.237Z,14.93
2022-12-06T06:04:01.812Z,14.35
2022-12-06T06:06:29.930Z,14.88
2022-12-06T06:08:58.008Z,14.20
2022-12-06T06:11:26.234Z,15.73
2022-12-06T06:13:54.897Z,15.07
2022-12-06T06:16:24.547Z,13.80
2022-12-06T06:18:52.918Z,13.73
2022-12-06T06:21:21.159Z,13.55
2022-12-06T06:23:49.221Z,12.52
2022-12-06T06:26:17.379Z,12.60
2022-12-06T06:28:45.334Z,12.98
2022-12-06T06:31:13.493Z,12.98
2022-12-06T06:33:42.999Z,15.45
2022-12-06T06:36:11.611Z,18.48
2022-12-06T06:38:39.953Z,13.63
2022-12-06T06:41:08.680Z,12.90
2022-12-06T06:43:36.715Z,13.45
2022-12-06T06:46:07.422Z,12.88
2022-12-06T06:48:37.096Z,11.40
2022-12-06T06:51:08.279Z,11.82
2022-12-06T06:53:37.632Z,13.07
2022-12-06T06:56:06.594Z,13.52
2022-12-06T06:58:34.631Z,10.98
2022-12-06T07:01:04.023Z,11.25
2022-12-06T07:03:32.784Z,13.07
2022-12-06T07:06:02.632Z,12.15
2022-12-06T07:08:32.966Z,12.63
2022-12-06T07:11:01.720Z,12.50
2022-12-06T07:13:30.931Z,11.35
2022-12-06T07:15:59.522Z,9.98
2022-12-06T07:18:27.600Z,10.38
2022-12-06T07:21:00.666Z,10.45
2022-12-06T07:23:28.987Z,10.32
2022-12-06T07:26:07.593Z,9.90
2022-12-06T07:28:37.045Z,9.57
2022-12-06T07:31:16.052Z,10.15
2022-12-06T07:33:45.217Z,9.00
2022-12-06T07:36:14.609Z,9.48
2022-12-06T07:38:43.483Z,9.10
2022-12-06T07:41:32.101Z,8.75
2022-12-06T07:44:19.081Z,8.35
2022-12-06T07:46:47.580Z,8.50
2022-12-06T07:49:17.209Z,8.68
2022-12-06T07:51:45.401Z,9.02
2022-12-06T07:54:13.762Z,9.38
2022-12-06T07:56:43.900Z,9.85
2022-12-06T08:01:40.042Z,9.30
2022-12-06T08:04:08.654Z,9.90
2022-12-06T08:06:37.513Z,9.32
2022-12-06T08:09:06.312Z,9.45
2022-12-06T08:11:34.771Z,9.60
2022-12-06T08:14:04.279Z,8.35
2022-12-06T08:16:32.861Z,9.93
2022-12-06T08:19:01.272Z,9.80
2022-12-06T08:21:29.476Z,9.05
2022-12-06T08:23:57.524Z,8.27
2022-12-06T08:26:25.664Z,8.63
2022-12-06T08:28:53.735Z,10.25
2022-12-06T08:31:25.198Z,9.07
2022-12-06T08:33:53.302Z,8.55
2022-12-06T08:36:23.407Z,9.32
2022-12-06T08:38:52.795Z,10.38
2022-12-06T08:41:38.853Z,10.70
2022-12-06T08:44:07.834Z,8.18
2022-12-06T08:46:37.333Z,8.63
2022-12-06T08:49:05.570Z,8.30
2022-12-06T08:51:36.832Z,8.88
2022-12-06T08:54:05.277Z,10.60
2022-12-06T08:56:33.561Z,9.98
2022-12-06T08:59:01.603Z,10.88
2022-12-06T09:01:37.402Z,10.75
2022-12-06T09:04:09.332Z,10.48
2022-12-06T09:06:40.231Z,10.55
2022-12-06T09:09:09.999Z,11.52
2022-12-06T09:11:38.180Z,11.45
2022-12-06T09:14:07.230Z,12.05
2022-12-06T09:16:35.349Z,11.55
2022-12-06T09:19:03.602Z,10.80
2022-12-06T09:21:34.308Z,10.68
2022-12-06T09:24:02.670Z,11.15
2022-12-06T09:26:31.084Z,10.48
2022-12-06T09:28:59.890Z,11.05
2022-12-06T09:31:27.962Z,9.82
2022-12-06T09:33:56.208Z,10.07
2022-12-06T09:36:27.261Z,10.38
2022-12-06T09:39:01.495Z,24.17
2022-12-06T09:42:04.948Z,11.52
2022-12-06T09:44:55.899Z,9.70
2022-12-06T09:47:36.560Z,10.95
2022-12-06T09:50:13.642Z,9.73
2022-12-06T09:53:01.793Z,10.20
2022-12-06T09:55:48.314Z,11.00
2022-12-06T09:58:30.048Z,11.00
2022-12-06T10:01:12.255Z,10.38
2022-12-06T10:03:58.461Z,11.68
2022-12-06T10:06:32.009Z,11.43
2022-12-06T10:09:15.322Z,12.07
2022-12-06T10:12:01.116Z,10.80
2022-12-06T10:14:47.058Z,11.48
2022-12-06T10:17:26.208Z,11.60
2022-12-06T10:20:04.643Z,12.57
2022-12-06T10:22:48.696Z,13.18
2022-12-06T10:25:22.439Z,11.88
2022-12-06T10:28:04.372Z,12.40
2022-12-06T10:30:34.827Z,13.48
2022-12-06T10:33:09.659Z,14.02
2022-12-06T10:35:44.032Z,14.20
2022-12-06T10:38:23.147Z,13.30
2022-12-06T10:41:00.327Z,14.05
2022-12-06T10:43:37.436Z,14.43
2022-12-06T10:46:29.977Z,14.23
2022-12-06T10:49:07.821Z,14.45
2022-12-06T10:51:42.467Z,14.65
2022-12-06T10:54:19.246Z,14.00
2022-12-06T10:56:51.996Z,14.82
2022-12-06T10:59:31.046Z,13.40
2022-12-06T11:02:05.501Z,14.15
2022-12-06T11:04:36.949Z,15.38
2022-12-06T11:07:13.920Z,16.52
2022-12-06T11:09:45.448Z,16.42
2022-12-06T11:12:29.415Z,15.15
2022-12-06T11:15:07.278Z,15.23
2022-12-06T11:17:40.671Z,15.40
2022-12-06T11:20:17.128Z,13.85
2022-12-06T11:22:53.499Z,14.65
2022-12-06T11:25:29.793Z,16.08
2022-12-06T11:28:06.589Z,14.73
2022-12-06T11:30:36.186Z,14.85
2022-12-06T11:33:05.550Z,14.77
2022-12-06T11:35:33.897Z,15.20
2022-12-06T11:38:06.756Z,14.35
2022-12-06T11:40:38.353Z,15.43
2022-12-06T11:43:10.095Z,14.07
2022-12-06T11:45:42.747Z,15.60
2022-12-06T11:48:16.613Z,14.30
2022-12-06T11:50:46.063Z,14.50
2022-12-06T11:53:21.413Z,14.80
2022-12-06T11:55:53.437Z,14.60
2022-12-06T11:58:29.241Z,15.05
2022-12-06T12:01:01.909Z,16.08
2022-12-06T12:03:32.302Z,16.38
2022-12-06T12:06:17.732Z,17.38
2022-12-06T12:08:58.991Z,16.95
2022-12-06T12:11:30.346Z,18.17
2022-12-06T12:14:02.536Z,17.45
2022-12-06T12:16:39.212Z,17.85
2022-12-06T12:19:28.613Z,17.40
2022-12-06T12:22:00.224Z,17.47
2022-12-06T12:27:47.351Z,15.93
2022-12-06T12:30:34.729Z,17.42
2022-12-06T12:33:28.948Z,16.05
2022-12-06T12:36:16.953Z,16.83
2022-12-06T12:38:51.495Z,17.13
2022-12-06T12:41:26.325Z,17.00
2022-12-06T12:44:20.910Z,17.13
2022-12-06T12:46:54.120Z,15.25
2022-12-06T12:49:29.496Z,15.27
2022-12-06T12:51:58.002Z,15.55
2022-12-06T12:54:29.834Z,15.63
2022-12-06T12:56:59.406Z,16.48
2022-12-06T12:59:33.541Z,16.08
2022-12-06T13:02:12.694Z,15.13
2022-12-06T13:04:45.502Z,14.23
2022-12-06T13:07:19.515Z,14.48
2022-12-06T13:09:55.142Z,15.27
2022-12-06T13:12:29.282Z,16.40
2022-12-06T13:15:02.786Z,16.98
2022-12-06T13:17:33.912Z,16.40
2022-12-06T13:20:05.723Z,15.70
2022-12-06T13:22:45.152Z,16.33
2022-12-06T13:25:13.892Z,15.15
2022-12-06T13:27:46.610Z,15.77
2022-12-06T13:30:19.271Z,15.95
2022-12-06T13:32:51.283Z,16.00
2022-12-06T13:35:26.762Z,16.73
2022-12-06T13:37:56.884Z,16.40
2022-12-06T13:40:47.334Z,14.45
2022-12-06T13:43:55.874Z,15.80
2022-12-06T13:46:33.752Z,16.08
2022-12-06T13:49:26.897Z,14.55
2022-12-06T13:51:56.595Z,15.85
2022-12-06T13:54:32.691Z,13.90
2022-12-06T13:57:04.194Z,13.60
2022-12-06T13:59:41.532Z,13.95
2022-12-06T14:02:44.121Z,13.63
2022-12-06T14:08:18.924Z,14.00
2022-12-06T14:10:47.243Z,13.65
2022-12-06T14:13:20.394Z,13.07
2022-12-06T14:15:53.271Z,12.88
2022-12-06T14:18:24.052Z,12.07
2022-12-06T14:20:54.886Z,12.75
2022-12-06T14:23:30.717Z,14.93
2022-12-06T14:26:21.802Z,16.23
2022-12-06T14:28:51.499Z,16.52
2022-12-06T14:31:23.789Z,18.40
2022-12-06T14:33:52.473Z,15.70
2022-12-06T14:36:25.051Z,15.40
2022-12-06T14:38:58.590Z,24.40
2022-12-06T14:41:49.850Z,20.45
2022-12-06T14:44:20.194Z,19.40
2022-12-06T14:49:37.406Z,18.25
2022-12-06T14:52:18.502Z,14.95
2022-12-06T14:54:48.641Z,19.58
2022-12-06T14:57:25.185Z,19.40
2022-12-06T15:00:18.428Z,18.08
2022-12-06T15:03:02.222Z,18.23
2022-12-06T15:05:36.399Z,18.52
2022-12-06T15:08:32.621Z,20.52
2022-12-06T15:11:03.520Z,18.45
2022-12-06T15:13:30.680Z,14.85
2022-12-06T15:16:13.942Z,13.45
2022-12-06T15:18:43.608Z,14.98
2022-12-06T15:21:13.522Z,12.98
2022-12-06T15:23:49.305Z,12.68
2022-12-06T15:26:20.358Z,13.18
2022-12-06T15:28:49.046Z,11.77
2022-12-06T15:31:20.404Z,10.45
2022-12-06T15:33:49.186Z,8.80
2022-12-06T15:36:19.245Z,6.65
2022-12-06T15:38:47.714Z,6.78
2022-12-06T15:41:20.107Z,6.20
2022-12-06T15:43:48.901Z,6.72
2022-12-06T15:46:19.773Z,7.20
2022-12-06T15:48:48.454Z,7.20
2022-12-06T15:51:20.796Z,7.07
2022-12-06T15:53:50.045Z,6.93
2022-12-06T15:56:21.783Z,7.32
2022-12-06T15:58:51.614Z,8.07
2022-12-06T16:01:22.853Z,9.65
2022-12-06T16:03:53.220Z,9.15
2022-12-06T16:06:22.715Z,9.68
2022-12-06T16:08:50.732Z,9.90
2022-12-06T16:11:22.423Z,13.68
2022-12-06T16:13:51.616Z,12.73
2022-12-06T16:16:21.324Z,13.82
2022-12-06T16:18:50.991Z,16.08
2022-12-06T16:21:22.611Z,15.30
2022-12-06T16:24:13.007Z,14.93
2022-12-06T16:26:45.320Z,15.88
2022-12-06T16:29:16.149Z,16.88
2022-12-06T16:31:44.564Z,16.45
2022-12-06T16:34:12.526Z,17.45
2022-12-06T16:37:01.934Z,16.75
2022-12-06T16:39:32.157Z,18.00
2022-12-06T16:44:29.838Z,16.70
2022-12-06T16:46:58.823Z,17.00
2022-12-06T16:52:17.111Z,17.52
2022-12-06T16:54:45.162Z,19.00
2022-12-06T16:57:15.532Z,18.70
2022-12-06T16:59:43.877Z,19.50
2022-12-06T17:02:26.447Z,18.70
2022-12-06T17:04:55.324Z,19.48
2022-12-06T17:07:23.528Z,19.10
2022-12-06T17:09:54.130Z,19.27
2022-12-06T17:12:23.579Z,18.40
2022-12-06T17:14:51.926Z,18.65
2022-12-06T17:17:22.487Z,18.35
2022-12-06T17:19:50.814Z,18.30
2022-12-06T17:22:19.738Z,18.15
2022-12-06T17:24:48.052Z,18.55
2022-12-06T17:27:16.642Z,18.33
2022-12-06T17:29:46.519Z,18.23
2022-12-06T17:32:14.752Z,17.70
2022-12-06T17:34:42.784Z,17.10
2022-12-06T17:37:10.995Z,17.27
2022-12-06T17:39:39.207Z,17.30
2022-12-06T17:42:24.854Z,17.85
2022-12-06T17:44:54.524Z,17.65
2022-12-06T17:47:22.701Z,16.73
2022-12-06T17:49:50.772Z,15.85
2022-12-06T17:52:18.984Z,16.25
2022-12-06T17:54:47.156Z,16.35
2022-12-06T17:57:18.385Z,16.40
2022-12-06T17:59:48.186Z,17.60
2022-12-06T18:02:19.991Z,17.38
2022-12-06T18:04:49.254Z,18.33
2022-12-06T18:07:18.253Z,18.08
2022-12-06T18:09:47.374Z,27.55
2022-12-06T18:12:17.201Z,24.17
2022-12-06T18:14:45.421Z,23.27
2022-12-06T18:17:13.771Z,25.33
2022-12-06T18:19:46.634Z,27.40
2022-12-06T18:22:15.514Z,29.50
2022-12-06T18:24:44.731Z,24.50
2022-12-06T18:27:12.936Z,29.42
2022-12-06T18:29:41.060Z,26.50
2022-12-06T18:32:09.080Z,27.05
2022-12-06T18:34:37.458Z,29.13
2022-12-06T18:37:06.900Z,26.25
2022-12-06T18:39:34.927Z,25.35
2022-12-06T18:42:03.180Z,29.60
2022-12-06T18:44:31.567Z,30.90
2022-12-06T18:46:59.691Z,30.60
2022-12-06T18:49:27.761Z,33.85
2022-12-06T18:51:55.903Z,31.02
2022-12-06T18:54:26.393Z,28.33
2022-12-06T18:56:54.697Z,28.05
2022-12-06T18:59:27.440Z,31.35
2022-12-06T19:01:57.003Z,34.20
2022-12-06T19:04:25.271Z,33.42
2022-12-06T19:06:54.485Z,36.50
2022-12-06T19:09:23.655Z,31.70
2022-12-06T19:11:53.082Z,26.30
2022-12-06T19:14:23.150Z,42.55
2022-12-06T19:16:52.902Z,41.72
2022-12-06T19:19:23.569Z,40.00
2022-12-06T19:21:53.497Z,43.67
2022-12-06T19:24:23.192Z,38.25
2022-12-06T19:26:53.981Z,34.28
2022-12-06T19:29:22.312Z,32.72
2022-12-06T19:31:50.473Z,28.40
2022-12-06T19:34:20.203Z,32.03
2022-12-06T19:36:50.918Z,28.20
2022-12-06T19:39:20.523Z,28.40
2022-12-06T19:42:07.022Z,29.67
2022-12-06T19:44:36.536Z,30.88
2022-12-06T19:47:04.729Z,32.70
2022-12-06T19:49:32.837Z,33.35
2022-12-06T19:52:01.579Z,30.33
2022-12-06T19:54:32.413Z,28.85
2022-12-06T19:57:02.014Z,34.63
2022-12-06T19:59:32.881Z,30.48
2022-12-06T20:02:03.563Z,33.20
2022-12-06T20:04:34.604Z,35.67
2022-12-06T20:07:02.732Z,26.60
2022-12-06T20:09:32.286Z,30.58
2022-12-06T20:12:02.232Z,24.45
2022-12-06T20:14:34.126Z,24.05
2022-12-06T20:17:04.193Z,27.08
2022-12-06T20:19:32.287Z,27.05
2022-12-06T20:22:00.508Z,24.40
2022-12-06T20:24:28.819Z,24.98
2022-12-06T20:26:57.650Z,24.92
2022-12-06T20:29:27.099Z,26.52
2022-12-06T20:31:58.095Z,24.55
2022-12-06T20:34:29.525Z,25.17
2022-12-06T20:36:58.211Z,24.95
2022-12-06T20:39:28.298Z,24.65
2022-12-06T20:41:56.743Z,26.58
2022-12-06T20:44:25.006Z,24.45
2022-12-06T20:46:54.164Z,27.50
2022-12-06T20:49:22.335Z,28.63
2022-12-06T20:51:53.586Z,32.10
2022-12-06T20:54:22.912Z,41.65
2022-12-06T20:56:53.590Z,36.65
2022-12-06T20:59:22.424Z,29.75
2022-12-06T21:01:50.494Z,28.15
2022-12-06T21:04:18.702Z,25.83
2022-12-06T21:06:46.810Z,25.52
2022-12-06T21:09:16.516Z,29.95
2022-12-06T21:11:44.682Z,31.95
2022-12-06T21:14:14.151Z,32.92
2022-12-06T21:16:43.854Z,30.95
2022-12-06T21:19:14.655Z,32.25
2022-12-06T21:21:46.316Z,33.30
2022-12-06T21:24:18.450Z,29.92
2022-12-06T21:26:47.087Z,25.67
2022-12-06T21:29:17.177Z,27.67
2022-12-06T21:31:45.893Z,30.50
2022-12-06T21:34:15.090Z,29.58
2022-12-06T21:36:44.122Z,29.00
2022-12-06T21:39:13.439Z,29.35
2022-12-06T21:41:43.121Z,32.00
2022-12-06T21:44:11.261Z,30.70
2022-12-06T21:46:39.409Z,29.88
2022-12-06T21:49:07.527Z,30.00
2022-12-06T21:51:35.793Z,29.15
2022-12-06T21:54:04.305Z,30.15
2022-12-06T21:56:34.061Z,29.23
2022-12-06T21:59:04.021Z,29.05
2022-12-06T22:01:32.828Z,31.25
2022-12-06T22:04:04.670Z,29.83
2022-12-06T22:06:33.592Z,30.27
2022-12-06T22:09:04.019Z,29.45
2022-12-06T22:11:33.172Z,32.20
2022-12-06T22:14:04.978Z,32.22
2022-12-06T22:16:33.514Z,31.65
2022-12-06T22:19:03.175Z,31.20
2022-12-06T22:21:33.161Z,28.48
2022-12-06T22:24:01.638Z,26.27
2022-12-06T22:26:31.557Z,26.42
2022-12-06T22:29:00.919Z,25.45
2022-12-06T22:31:33.181Z,22.50
2022-12-06T22:34:03.109Z,24.70
2022-12-06T22:39:02.323Z,24.70
2022-12-06T22:41:31.039Z,26.17
2022-12-06T22:44:00.862Z,26.55
2022-12-06T22:46:31.041Z,28.98
2022-12-06T22:51:29.211Z,29.20
2022-12-06T22:53:59.041Z,28.88
2022-12-06T22:56:27.954Z,31.55
2022-12-06T22:58:56.912Z,29.45
2022-12-06T23:01:27.830Z,28.30
2022-12-06T23:04:00.698Z,26.05
2022-12-06T23:06:29.960Z,25.27
2022-12-06T23:08:59.295Z,24.87
2022-12-06T23:11:29.316Z,23.23
2022-12-06T23:13:58.848Z,22.90
2022-12-06T23:16:29.769Z,22.95
2022-12-06T23:19:01.235Z,20.80
2022-12-06T23:21:31.789Z,20.48
2022-12-06T23:24:02.361Z,20.60
2022-12-06T23:26:33.039Z,20.45
2022-12-06T23:29:01.392Z,19.80
2022-12-06T23:31:31.173Z,18.13
2022-12-06T23:34:03.412Z,17.92
2022-12-06T23:36:33.288Z,18.75
2022-12-06T23:39:01.816Z,20.50
2022-12-06T23:41:32.417Z,20.73
2022-12-06T23:44:01.332Z,22.73
2022-12-06T23:46:31.506Z,19.35
2022-12-06T23:51:31.489Z,25.52
2022-12-06T23:54:00.905Z,25.38
2022-12-06T23:56:30.813Z,25.67
2022-12-06T23:59:00.537Z,25.60
